找回密码
 注册

扫一扫,访问微社区

成都站--EDA365硬件技术研讨会

推荐主题

公告 公告: ----本周NXP器件特价!---- admin 2019-8-19    
本版置顶 隐藏置顶帖 那些年,风靡全球的SI,PI,EMC BOOKS(2009--2015)外文版 101人参与 attach_img  ...23456..7 樱桃海弥 2016-2-2 17:33 100 10578 虫虫麻麻 2019-8-15 09:21
本版置顶 隐藏置顶帖 Designcon 2016 paper 下载站 98人参与 attachment  ...23456..8 shark4685 2016-1-27 11:33 110 17403 虫虫麻麻 2019-8-20 11:41
      
[Ansys仿真] HFSS EMC远场辐射换算成3米场辐射问题 New UNSC 2019-8-20 11:37 0 4 UNSC 2019-8-20 11:37
[资料下载] 分享一个下载ddr芯片的ibis模型的网页 新人帖 New 虫虫麻麻 2019-8-20 11:01 0 14 虫虫麻麻 2019-8-20 11:01
[Cadence Sigrity] SystemSI 仿真中眼图设置问题? 2人参与 attach_img New lfc1203 2019-8-19 20:22 2 60 yangjinxing521 2019-8-20 09:09
[Cadence Sigrity] 请问AD能导入到sigrity做仿真吗? 1人参与 New eileendong 2019-8-19 16:28 1 56 yangjinxing521 2019-8-19 17:04
[仿真讨论] 10G频率的信号控制这8点就能成 5人参与 新人帖 recommend New xboxintel 2019-8-19 10:44 5 78 虫虫麻麻 2019-8-20 11:39
[仿真讨论] 芯片的功耗和温度之间的转换? 1人参与 New Lukezhang 2019-8-19 09:15 1 60 wu6886 2019-8-19 16:14
[Cadence Sigrity] POWER DC仿真 8人参与 New lantian318 2019-8-16 07:31 10 117 xboxintel 2019-8-19 10:53
[资料下载] 罗杰斯板材资料 4人参与 新人帖 attachment yunguzi 2019-8-13 10:32 4 128 longhongbo 2019-8-15 19:00
[仿真讨论] 请教仿真,多谢! 8人参与 liling92zdh 2019-8-12 15:25 13 158 xboxintel 2019-8-19 10:49
[仿真讨论] 上次发帖好多人讲找不到仿真模型和对应的学习资料,里面含模型库文件料 7人参与 attachment Anne@1985 2019-8-12 11:01 9 163 bingshuihuo 2019-8-15 13:40
[Cadence Sigrity] 材料属性DS/Debye模型 1人参与 新人帖 于xx 2019-8-11 21:31 1 85 wu6886 2019-8-12 10:21
[仿真讨论] 关于差分线绕线方式的仿真结果 9人参与 attachment trocipek 2019-8-8 16:55 10 227 cheche85 2019-8-20 11:45
[ADS仿真] 【首发】Keysight最新ADS2020和谐补丁 38人参与 attach_img  ...23 14789632 2019-8-7 14:18 41 344 yanlog 2019-8-19 16:34
[HyperLynx] Hyperlynx在做PI AC阻抗仿真 1人参与 superking18 2019-8-4 16:54 1 156 niuwa 2019-8-19 08:58
[仿真讨论] 新人,求教各位大神几种仿真软件的优劣势各是什么呢? 10人参与 新人帖 attach_img lwind 2019-8-4 14:15 10 255 worde 2019-8-12 23:15
[Cadence Sigrity] 请教power dc 中如何设置sense 线 3人参与 新人帖 046333zyb 2019-8-3 14:47 4 183 zzzljb 2019-8-8 14:23
[Ansys仿真] SIwave中如何设置软硬结合板(RFPC)的叠层? xuyangliu 2019-8-2 11:38 0 99 xuyangliu 2019-8-2 11:38
[HyperLynx] 求一份仿真需求表单 4人参与 yjj198709 2019-7-31 09:56 4 150 超越自己123 2019-8-10 22:03
[HyperLynx] Hyperlynx 可以仿真2层板吗? 5人参与 新人帖 zzl3389 2019-7-31 09:16 5 141 11xiaohehe 2019-8-18 02:14
[Ansys仿真] HFSS导入PCB报错 3人参与 ares0260 2019-7-31 08:32 3 117 超越自己123 2019-8-10 22:05
[Cadence Sigrity] DDR3仿真报错求解 4人参与 新人帖 attach_img lantian318 2019-7-31 08:14 4 156 lwind 2019-8-4 10:12
[仿真讨论] ADS中如何仿真眼图 11人参与 新人帖 20158726 2019-7-28 16:39 11 264 worde 2019-8-15 21:01
[Ansys仿真] 请教SIwave pcb导入HFSS焊盘丢失问题 2人参与 recommend UNSC 2019-7-27 22:01 2 149 20158726 2019-7-28 14:33
下一页 »
还可输入 80 个字符
您需要登录后才可以发帖 登录 | 注册

本版积分规则

EDA365公众号

关于我们|手机版|EDA365电子论坛网 ( 粤ICP备18020198号 )

GMT+8, 2019-8-20 11:45 , Processed in 0.109375 second(s), 13 queries , Gzip On.

深圳市墨知创新科技有限公司

地址:深圳市南山区科技生态园2栋A座805 电话:19925233282

返回顶部 返回版块